sensor_id;sensor_type;location;lat;lon;timestamp;P1;durP1;ratioP1;P2;durP2;ratioP2
73524;SDS011;61776;56.194;44.160;2022-08-21T09:27:12;8.70;;;4.68;;
73524;SDS011;61776;56.194;44.160;2022-08-21T09:30:14;11.48;;;4.30;;
73524;SDS011;61776;56.194;44.160;2022-08-21T09:33:19;7.15;;;4.05;;
73524;SDS011;61776;56.194;44.160;2022-08-21T09:37:15;15.38;;;4.72;;
73524;SDS011;61776;56.194;44.160;2022-08-21T09:40:40;10.20;;;4.20;;
73524;SDS011;61776;56.194;44.160;2022-08-21T09:43:51;8.00;;;3.40;;
73524;SDS011;61776;56.194;44.160;2022-08-21T09:47:32;6.63;;;4.05;;
73524;SDS011;61776;56.194;44.160;2022-08-21T09:50:38;12.30;;;4.35;;
73524;SDS011;61776;56.194;44.160;2022-08-21T09:54:28;9.52;;;4.72;;
73524;SDS011;61776;56.194;44.160;2022-08-21T09:57:51;7.73;;;4.27;;
73524;SDS011;61776;56.194;44.160;2022-08-21T10:00:59;8.25;;;4.43;;
73524;SDS011;61776;56.194;44.160;2022-08-21T10:08:15;16.65;;;4.38;;
73524;SDS011;61776;56.194;44.160;2022-08-21T10:10:45;7.55;;;4.03;;
73524;SDS011;61776;56.194;44.160;2022-08-21T10:13:21;7.37;;;4.47;;
73524;SDS011;61776;56.194;44.160;2022-08-21T10:16:08;7.30;;;4.22;;
73524;SDS011;61776;56.194;44.160;2022-08-21T10:23:54;17.90;;;5.18;;
73524;SDS011;61776;56.194;44.160;2022-08-21T10:26:32;13.85;;;5.05;;
73524;SDS011;61776;56.194;44.160;2022-08-21T10:35:37;8.10;;;4.22;;
73524;SDS011;61776;56.194;44.160;2022-08-21T10:39:20;8.77;;;4.15;;
73524;SDS011;61776;56.194;44.160;2022-08-21T10:45:32;7.20;;;4.13;;
73524;SDS011;61776;56.194;44.160;2022-08-21T10:48:25;8.77;;;4.63;;
73524;SDS011;61776;56.194;44.160;2022-08-21T11:01:24;10.17;;;4.30;;
73524;SDS011;61776;56.194;44.160;2022-08-21T11:04:10;5.57;;;4.07;;
73524;SDS011;61776;56.194;44.160;2022-08-21T11:07:28;6.53;;;4.28;;
73524;SDS011;61776;56.194;44.160;2022-08-21T11:10:48;9.77;;;4.20;;
73524;SDS011;61776;56.194;44.160;2022-08-21T11:13:59;8.57;;;3.88;;
73524;SDS011;61776;56.194;44.160;2022-08-21T11:17:53;10.37;;;3.73;;
73524;SDS011;61776;56.194;44.160;2022-08-21T11:41:49;8.15;;;4.38;;
73524;SDS011;61776;56.194;44.160;2022-08-21T11:44:44;9.02;;;4.72;;
73524;SDS011;61776;56.194;44.160;2022-08-21T11:50:16;13.50;;;4.20;;
73524;SDS011;61776;56.194;44.160;2022-08-21T11:53:29;8.13;;;4.00;;
73524;SDS011;61776;56.194;44.160;2022-08-21T11:56:34;10.25;;;4.70;;
73524;SDS011;61776;56.194;44.160;2022-08-21T11:59:49;10.98;;;4.15;;
73524;SDS011;61776;56.194;44.160;2022-08-21T12:09:32;10.97;;;4.17;;
73524;SDS011;61776;56.194;44.160;2022-08-21T12:16:31;9.80;;;4.30;;
73524;SDS011;61776;56.194;44.160;2022-08-21T12:26:20;9.13;;;3.93;;
73524;SDS011;61776;56.194;44.160;2022-08-21T12:29:36;8.93;;;4.35;;
73524;SDS011;61776;56.194;44.160;2022-08-21T12:33:26;6.63;;;4.78;;
73524;SDS011;61776;56.194;44.160;2022-08-21T12:35:51;5.40;;;4.20;;
73524;SDS011;61776;56.194;44.160;2022-08-21T15:02:35;8.10;;;4.57;;
73524;SDS011;61776;56.194;44.160;2022-08-21T15:05:02;14.98;;;4.63;;
73524;SDS011;61776;56.194;44.160;2022-08-21T15:07:28;28.20;;;5.53;;
73524;SDS011;61776;56.194;44.160;2022-08-21T15:09:54;22.33;;;4.68;;
73524;SDS011;61776;56.194;44.160;2022-08-21T15:12:20;20.37;;;4.30;;
73524;SDS011;61776;56.194;44.160;2022-08-21T15:14:46;14.65;;;4.05;;
73524;SDS011;61776;56.194;44.160;2022-08-21T15:17:12;15.38;;;4.00;;
73524;SDS011;61776;56.194;44.160;2022-08-21T15:19:38;10.65;;;4.00;;
73524;SDS011;61776;56.194;44.160;2022-08-21T15:22:45;17.03;;;4.20;;
73524;SDS011;61776;56.194;44.160;2022-08-21T15:26:22;16.95;;;4.10;;
73524;SDS011;61776;56.194;44.160;2022-08-21T15:29:23;8.77;;;3.67;;
73524;SDS011;61776;56.194;44.160;2022-08-21T15:33:11;10.25;;;3.90;;
73524;SDS011;61776;56.194;44.160;2022-08-21T15:36:17;10.80;;;3.72;;
73524;SDS011;61776;56.194;44.160;2022-08-21T15:39:46;8.67;;;3.60;;
73524;SDS011;61776;56.194;44.160;2022-08-21T15:43:25;19.23;;;3.47;;
73524;SDS011;61776;56.194;44.160;2022-08-21T15:46:27;22.88;;;4.25;;
73524;SDS011;61776;56.194;44.160;2022-08-21T15:49:34;22.45;;;3.80;;
73524;SDS011;61776;56.194;44.160;2022-08-21T15:53:04;14.82;;;3.72;;
73524;SDS011;61776;56.194;44.160;2022-08-21T15:56:23;9.60;;;3.77;;
73524;SDS011;61776;56.194;44.160;2022-08-21T16:45:08;15.48;;;5.72;;
73524;SDS011;61776;56.194;44.160;2022-08-21T16:47:39;12.60;;;5.40;;
73524;SDS011;61776;56.194;44.160;2022-08-21T16:50:05;15.82;;;5.57;;
73524;SDS011;61776;56.194;44.160;2022-08-21T16:52:32;18.58;;;5.57;;
73524;SDS011;61776;56.194;44.160;2022-08-21T16:54:59;14.80;;;5.50;;
73524;SDS011;61776;56.194;44.160;2022-08-21T16:57:25;18.30;;;5.05;;
73524;SDS011;61776;56.194;44.160;2022-08-21T16:59:52;12.68;;;5.18;;
73524;SDS011;61776;56.194;44.160;2022-08-21T17:03:22;9.77;;;4.75;;
73524;SDS011;61776;56.194;44.160;2022-08-21T17:06:26;11.73;;;4.30;;
73524;SDS011;61776;56.194;44.160;2022-08-21T17:13:44;12.77;;;4.78;;
73524;SDS011;61776;56.194;44.160;2022-08-21T17:17:14;11.73;;;4.55;;
73524;SDS011;61776;56.194;44.160;2022-08-21T17:20:22;12.18;;;5.22;;
73524;SDS011;61776;56.194;44.160;2022-08-21T17:24:10;21.27;;;5.70;;
73524;SDS011;61776;56.194;44.160;2022-08-21T17:27:16;13.80;;;5.15;;
73524;SDS011;61776;56.194;44.160;2022-08-21T17:30:21;26.58;;;5.20;;
73524;SDS011;61776;56.194;44.160;2022-08-21T17:33:51;17.15;;;4.68;;
73524;SDS011;61776;56.194;44.160;2022-08-21T17:36:56;9.00;;;4.15;;
73524;SDS011;61776;56.194;44.160;2022-08-21T17:44:06;10.95;;;4.10;;
